Etusivu
METAR-TAF:

METAR-TAF

Lentoasemat :

Princeton Municipal Airport

Princeton, Minnesota, Yhdysvallat

Leveyspiiri: 45-33N, Pituuspiiri: 093-36W, korkeus merenpinnasta: 298 m

Tämänhetkinen sää

Tämä raportti tehtiin 23 minuuttia sitten, kello 01.35 UTC
tyyntä
Lämpötila -11°C
Kosteus 66%
Ilmanpaine 1028 hPa
Näkyvyys: 16.1 km
Hajanaisia pilviä 12000 ft:n korkeudessa

METAR: KPNM 200135Z AUTO 00000KT 10SM SCT120 M11/M16 A3036 RMK AO2

Aika: 19:58 (01:58 UTC)


TAF: puuttuu

Säähavainnot ja -ennusteet yli 4000 lentoasemalta (METAR- ja TAF-raportit).

Käytössä olevat sääasemat on merkitty karttaan keltaisilla ja punaisilla pisteillä.

Aseta hiiri pisteen päälle nähdäksesi sääaseman nimen.

Klikkaa sitten nähdäksesi säähavainnot ja -ennusteet.

Kartan vaihtaminen: klikkaa mustalla rastilla varustettuja vihreitä pisteitä, niin voit zoomata sisään; viivalla varustettua vihreää pistettä, niin voit zoomata ulos tai vihreitä nuolia, niin pääset viereisille kartoille.


METAR-TAF: